createdAt,value
2023-01-26T00:00:21.471Z,77.28
2023-01-26T00:03:33.234Z,77.31
2023-01-26T00:06:41.074Z,77.54
2023-01-26T00:09:52.335Z,77.38
2023-01-26T00:12:59.322Z,77.58
2023-01-26T00:16:06.931Z,77.84
2023-01-26T00:19:16.462Z,78.11
2023-01-26T00:22:22.644Z,78.32
2023-01-26T00:25:29.603Z,78.05
2023-01-26T00:28:35.673Z,78.73
2023-01-26T00:31:42.607Z,79.01
2023-01-26T00:34:51.427Z,78.95
2023-01-26T00:37:58.278Z,78.10
2023-01-26T00:41:04.508Z,77.68
2023-01-26T00:44:11.528Z,78.26
2023-01-26T00:47:17.897Z,78.41
2023-01-26T00:50:27.437Z,77.41
2023-01-26T00:53:35.927Z,77.39
2023-01-26T00:56:42.798Z,77.04
2023-01-26T00:59:48.886Z,77.36
2023-01-26T01:02:57.408Z,77.84
2023-01-26T01:06:06.402Z,77.74
2023-01-26T01:09:13.460Z,77.33
2023-01-26T01:12:19.856Z,75.94
2023-01-26T01:15:28.595Z,75.00
2023-01-26T01:18:34.669Z,74.55
2023-01-26T01:21:45.714Z,74.42
2023-01-26T01:24:52.699Z,74.32
2023-01-26T01:27:59.666Z,74.08
2023-01-26T01:31:08.954Z,73.66
2023-01-26T01:34:16.022Z,74.42
2023-01-26T01:37:24.732Z,74.63
2023-01-26T01:40:31.788Z,74.95
2023-01-26T01:43:40.000Z,74.95
2023-01-26T01:46:56.847Z,74.52
2023-01-26T01:50:05.174Z,74.26
2023-01-26T01:53:26.081Z,74.91
2023-01-26T01:56:36.607Z,74.75
2023-01-26T01:59:45.857Z,74.91
2023-01-26T02:03:15.170Z,75.25
2023-01-26T02:06:33.055Z,75.91
2023-01-26T02:09:57.693Z,75.55
2023-01-26T02:13:08.913Z,75.79
2023-01-26T02:16:15.391Z,76.17
2023-01-26T02:19:40.268Z,76.04
2023-01-26T02:23:01.828Z,76.40
2023-01-26T02:26:17.223Z,76.42
2023-01-26T02:29:25.867Z,76.14
2023-01-26T02:32:32.209Z,75.96
2023-01-26T02:35:39.280Z,76.67
2023-01-26T02:38:58.454Z,75.32
2023-01-26T02:42:20.872Z,75.36
2023-01-26T02:45:30.719Z,74.63
2023-01-26T02:49:02.102Z,74.01
2023-01-26T02:52:09.550Z,74.00
2023-01-26T02:55:26.556Z,73.53
2023-01-26T02:58:35.430Z,72.28
2023-01-26T03:01:42.330Z,72.51
2023-01-26T03:04:48.561Z,71.78
2023-01-26T03:07:55.614Z,71.76
2023-01-26T03:11:04.901Z,72.57
2023-01-26T03:14:18.523Z,71.61
2023-01-26T03:17:24.710Z,71.93
2023-01-26T03:20:43.986Z,71.63
2023-01-26T03:24:02.528Z,70.92
2023-01-26T03:27:25.903Z,71.22
2023-01-26T03:30:35.534Z,69.93
2023-01-26T03:33:42.867Z,70.16
2023-01-26T03:36:49.661Z,70.47
2023-01-26T03:40:11.320Z,70.25
2023-01-26T03:43:30.363Z,69.69
2023-01-26T03:46:52.279Z,70.96
2023-01-26T03:50:11.774Z,70.45
2023-01-26T03:53:34.793Z,70.20
2023-01-26T03:56:41.111Z,70.16
2023-01-26T03:59:53.292Z,69.96
2023-01-26T04:03:16.527Z,69.99
2023-01-26T04:06:36.053Z,70.84
2023-01-26T04:09:42.587Z,71.20
2023-01-26T04:13:01.864Z,71.26
2023-01-26T04:16:22.385Z,71.78
2023-01-26T04:19:44.302Z,73.32
2023-01-26T04:22:50.491Z,74.00
2023-01-26T04:25:58.221Z,74.01
2023-01-26T04:29:05.449Z,74.16
2023-01-26T04:32:12.896Z,74.52
2023-01-26T04:35:21.770Z,74.44
2023-01-26T04:38:29.071Z,74.58
2023-01-26T04:41:36.661Z,75.24
2023-01-26T04:44:50.071Z,75.68
2023-01-26T04:47:56.852Z,75.66
2023-01-26T04:51:10.100Z,75.20
2023-01-26T04:54:16.589Z,75.09
2023-01-26T04:57:24.902Z,75.37
2023-01-26T05:00:31.790Z,75.61
2023-01-26T05:03:40.374Z,75.78
2023-01-26T05:06:49.126Z,75.96
2023-01-26T05:09:56.065Z,75.54
2023-01-26T05:13:31.322Z,75.55
2023-01-26T05:16:56.514Z,75.35
2023-01-26T05:20:19.853Z,75.43
2023-01-26T05:23:45.357Z,75.02
2023-01-26T05:27:19.466Z,75.39
2023-01-26T05:30:29.308Z,75.30
2023-01-26T05:33:36.337Z,75.46
2023-01-26T05:36:44.271Z,76.12
2023-01-26T05:39:53.014Z,76.72
2023-01-26T05:43:00.657Z,77.38
2023-01-26T05:46:24.766Z,78.69
2023-01-26T05:49:31.994Z,79.19
2023-01-26T05:52:38.984Z,79.00
2023-01-26T05:55:48.958Z,79.47
2023-01-26T05:58:58.926Z,78.91
2023-01-26T06:02:06.649Z,79.25
2023-01-26T06:05:15.284Z,78.84
2023-01-26T06:08:30.909Z,78.32
2023-01-26T06:12:03.076Z,78.22
2023-01-26T06:15:27.091Z,79.06
2023-01-26T06:18:34.618Z,78.77
2023-01-26T06:21:41.785Z,77.74
2023-01-26T06:24:48.150Z,78.16
2023-01-26T06:28:01.364Z,77.85
2023-01-26T06:31:11.930Z,78.10
2023-01-26T06:34:20.214Z,77.83
2023-01-26T06:37:26.618Z,78.17
2023-01-26T06:40:34.112Z,77.91
2023-01-26T06:43:47.682Z,78.68
2023-01-26T06:46:54.976Z,78.10
2023-01-26T06:50:03.038Z,77.41
2023-01-26T06:53:32.760Z,77.87
2023-01-26T06:56:56.161Z,78.14
2023-01-26T07:00:31.839Z,77.68
2023-01-26T07:03:52.994Z,78.86
2023-01-26T07:07:00.492Z,79.58
2023-01-26T07:10:07.695Z,79.42
2023-01-26T07:13:14.674Z,79.32
2023-01-26T07:16:23.475Z,78.81
2023-01-26T07:19:31.609Z,78.10
2023-01-26T07:22:37.701Z,79.32
2023-01-26T07:25:47.170Z,78.17
2023-01-26T07:28:53.266Z,79.67
2023-01-26T07:32:02.843Z,79.80
2023-01-26T07:35:10.910Z,78.74
2023-01-26T07:38:18.551Z,79.08
2023-01-26T07:41:24.610Z,78.37
2023-01-26T07:44:31.611Z,78.35
2023-01-26T07:47:40.641Z,77.85
2023-01-26T07:50:48.806Z,78.01
2023-01-26T07:53:54.920Z,79.59
2023-01-26T07:57:01.952Z,79.23
2023-01-26T08:00:12.754Z,78.73
2023-01-26T08:03:22.538Z,77.87
2023-01-26T08:06:28.830Z,77.77
2023-01-26T08:09:36.316Z,77.33
2023-01-26T08:12:42.419Z,77.27
2023-01-26T08:15:49.434Z,77.51
2023-01-26T08:18:58.106Z,76.24
2023-01-26T08:22:05.091Z,77.16
2023-01-26T08:25:12.798Z,76.35
2023-01-26T08:28:21.196Z,75.99
2023-01-26T08:31:28.520Z,75.80
2023-01-26T08:34:39.428Z,75.56
2023-01-26T08:37:45.533Z,74.50
2023-01-26T08:40:55.964Z,74.01
2023-01-26T08:44:02.248Z,73.97
2023-01-26T08:47:09.234Z,73.24
2023-01-26T08:50:18.232Z,73.45
2023-01-26T08:53:25.466Z,73.49
2023-01-26T08:56:31.540Z,73.30
2023-01-26T08:59:38.302Z,73.49
2023-01-26T09:02:44.379Z,74.48
2023-01-26T09:05:54.068Z,74.37
2023-01-26T09:09:00.473Z,73.31
2023-01-26T09:12:08.506Z,73.59
2023-01-26T09:15:15.172Z,74.71
2023-01-26T09:18:22.304Z,74.26
2023-01-26T09:21:31.134Z,75.51
2023-01-26T09:24:38.062Z,74.80
2023-01-26T09:27:44.886Z,74.94
2023-01-26T09:30:51.904Z,74.47
2023-01-26T09:33:58.051Z,74.46
2023-01-26T09:37:10.013Z,73.86
2023-01-26T09:40:26.248Z,74.29
2023-01-26T09:43:43.298Z,73.50
2023-01-26T09:47:09.205Z,73.29
2023-01-26T09:50:26.180Z,73.34
2023-01-26T09:53:49.696Z,73.63
2023-01-26T09:56:58.946Z,73.85
2023-01-26T10:00:13.346Z,73.55
2023-01-26T10:03:35.759Z,73.48
2023-01-26T10:06:43.181Z,73.62
2023-01-26T10:10:05.536Z,73.59
2023-01-26T10:13:19.836Z,72.87
2023-01-26T10:16:29.491Z,73.02
2023-01-26T10:19:44.048Z,72.92
2023-01-26T10:22:57.882Z,73.73
2023-01-26T10:26:18.036Z,73.41
2023-01-26T10:29:26.464Z,72.29
2023-01-26T10:32:32.629Z,72.87
2023-01-26T10:35:39.762Z,72.12
2023-01-26T10:38:50.136Z,71.98
2023-01-26T10:42:05.791Z,71.89
2023-01-26T10:45:33.471Z,71.23
2023-01-26T10:48:40.407Z,71.08
2023-01-26T10:51:49.570Z,71.32
2023-01-26T10:55:20.356Z,72.23
2023-01-26T10:58:51.707Z,72.33
2023-01-26T11:02:03.850Z,71.75
2023-01-26T11:05:27.194Z,71.44
2023-01-26T11:08:38.456Z,71.04
2023-01-26T11:12:01.353Z,71.81
2023-01-26T11:15:23.283Z,72.24
2023-01-26T11:18:45.507Z,72.37
2023-01-26T11:22:01.775Z,72.43
2023-01-26T11:25:26.037Z,72.27
2023-01-26T11:28:57.649Z,73.15
2023-01-26T11:32:22.264Z,72.36
2023-01-26T11:35:46.354Z,71.04
2023-01-26T11:39:10.765Z,70.75
2023-01-26T11:42:40.126Z,70.17
2023-01-26T11:46:19.597Z,70.02
2023-01-26T11:49:54.465Z,70.49
2023-01-26T11:53:31.051Z,71.10
2023-01-26T11:56:53.451Z,70.50
2023-01-26T12:00:29.093Z,71.71
2023-01-26T12:03:48.459Z,71.23
2023-01-26T12:07:06.860Z,70.79
2023-01-26T12:10:19.189Z,70.04
2023-01-26T12:13:39.290Z,69.39
2023-01-26T12:17:18.028Z,69.11
2023-01-26T12:20:41.543Z,68.51
2023-01-26T12:24:04.132Z,68.38
2023-01-26T12:27:26.907Z,69.43
2023-01-26T12:30:48.030Z,69.43
2023-01-26T12:34:00.117Z,69.52
2023-01-26T12:37:44.657Z,69.77
2023-01-26T12:41:13.795Z,70.44
2023-01-26T12:44:39.941Z,69.74
2023-01-26T12:47:55.934Z,70.00
2023-01-26T12:51:13.008Z,70.31
2023-01-26T12:54:31.114Z,71.68
2023-01-26T12:57:52.202Z,71.29
2023-01-26T13:01:08.251Z,71.00
2023-01-26T13:04:19.793Z,69.89
2023-01-26T13:07:40.263Z,69.67
2023-01-26T13:10:52.965Z,69.77
2023-01-26T13:14:01.734Z,69.51
2023-01-26T13:17:51.444Z,70.79
2023-01-26T13:20:57.647Z,71.22
2023-01-26T13:24:05.033Z,70.78
2023-01-26T13:27:33.510Z,69.29
2023-01-26T13:30:50.614Z,69.36
2023-01-26T13:33:57.184Z,68.41
2023-01-26T13:37:16.241Z,68.39
2023-01-26T13:40:31.223Z,68.25
2023-01-26T13:43:46.709Z,69.02
2023-01-26T13:47:05.037Z,69.19
2023-01-26T13:50:26.709Z,70.19
2023-01-26T13:53:46.742Z,69.99
2023-01-26T13:57:09.110Z,70.15
2023-01-26T14:00:17.490Z,70.01
2023-01-26T14:03:27.584Z,69.54
2023-01-26T14:06:35.530Z,69.61
2023-01-26T14:09:52.888Z,69.46
2023-01-26T14:13:01.446Z,69.48
2023-01-26T14:16:10.935Z,69.51
2023-01-26T14:19:23.443Z,70.21
2023-01-26T14:22:31.228Z,69.63
2023-01-26T14:25:38.079Z,69.83
2023-01-26T14:28:47.100Z,70.11
2023-01-26T14:31:57.925Z,70.52
2023-01-26T14:35:24.263Z,70.72
2023-01-26T14:38:33.293Z,70.69
2023-01-26T14:41:40.842Z,70.58
2023-01-26T14:44:47.282Z,70.67
2023-01-26T14:47:58.529Z,70.30
2023-01-26T14:51:17.275Z,70.24
2023-01-26T14:54:34.098Z,70.48
2023-01-26T14:57:40.625Z,70.61
2023-01-26T15:00:52.283Z,70.27
2023-01-26T15:04:09.463Z,70.52
2023-01-26T15:07:39.153Z,70.36
2023-01-26T15:10:55.955Z,70.15
2023-01-26T15:14:03.162Z,70.46
2023-01-26T15:17:09.794Z,70.55
2023-01-26T15:20:46.129Z,70.65
2023-01-26T15:23:58.572Z,71.37
2023-01-26T15:27:10.563Z,70.90
2023-01-26T15:30:22.308Z,71.95
2023-01-26T15:33:56.206Z,72.60
2023-01-26T15:37:03.908Z,72.35
2023-01-26T15:40:15.663Z,72.84
2023-01-26T15:43:24.078Z,73.10
2023-01-26T15:46:31.455Z,73.99
2023-01-26T15:49:37.697Z,73.46
2023-01-26T15:52:45.161Z,73.47
2023-01-26T15:55:56.479Z,72.87
2023-01-26T15:59:03.610Z,72.74
2023-01-26T16:02:19.566Z,72.48
2023-01-26T16:05:28.271Z,72.42
2023-01-26T16:08:35.107Z,72.66
2023-01-26T16:11:54.168Z,72.72
2023-01-26T16:15:00.587Z,72.51
2023-01-26T16:18:07.815Z,72.82
2023-01-26T16:21:24.134Z,72.86
2023-01-26T16:24:31.227Z,73.25
2023-01-26T16:27:40.170Z,72.98
2023-01-26T16:30:52.566Z,73.32
2023-01-26T16:33:59.695Z,74.04
2023-01-26T16:37:06.869Z,75.20
2023-01-26T16:40:17.445Z,75.45
2023-01-26T16:43:30.984Z,75.50
2023-01-26T16:46:37.247Z,76.76
2023-01-26T16:49:45.751Z,77.01
2023-01-26T16:52:52.437Z,77.20
2023-01-26T16:55:59.941Z,77.45
2023-01-26T16:59:08.904Z,77.76
2023-01-26T17:02:28.771Z,77.18
2023-01-26T17:05:35.230Z,76.78
2023-01-26T17:08:42.975Z,77.26
2023-01-26T17:11:49.057Z,77.46
2023-01-26T17:14:58.666Z,77.73
2023-01-26T17:18:04.816Z,77.59
2023-01-26T17:21:12.000Z,77.02
2023-01-26T17:24:18.154Z,77.28
2023-01-26T17:27:26.073Z,77.46
2023-01-26T17:30:34.861Z,77.18
2023-01-26T17:33:42.909Z,77.91
2023-01-26T17:36:49.126Z,77.86
2023-01-26T17:39:56.283Z,77.18
2023-01-26T17:43:02.493Z,76.82
2023-01-26T17:46:17.119Z,76.35
2023-01-26T17:49:25.247Z,75.53
2023-01-26T17:52:35.579Z,76.40
2023-01-26T17:55:41.768Z,75.91
2023-01-26T17:58:54.049Z,76.80
2023-01-26T18:02:03.097Z,76.80
2023-01-26T18:05:12.655Z,76.44
2023-01-26T18:08:19.324Z,75.22
2023-01-26T18:11:27.697Z,74.37
2023-01-26T18:14:36.227Z,74.39
2023-01-26T18:17:45.850Z,73.63
2023-01-26T18:20:52.017Z,72.96
2023-01-26T18:24:02.699Z,73.19
2023-01-26T18:27:08.877Z,72.66
2023-01-26T18:30:17.245Z,73.26
2023-01-26T18:33:26.022Z,73.51
2023-01-26T18:36:34.309Z,73.22
2023-01-26T18:39:41.073Z,73.05
2023-01-26T18:42:49.518Z,72.40
2023-01-26T18:45:55.718Z,72.88
2023-01-26T18:49:05.420Z,73.27
2023-01-26T18:52:12.840Z,73.41
2023-01-26T18:55:20.458Z,73.39
2023-01-26T18:58:26.534Z,73.64
2023-01-26T19:01:33.634Z,73.70
2023-01-26T19:04:43.562Z,74.53
2023-01-26T19:07:50.640Z,74.52
2023-01-26T19:10:56.799Z,73.75
2023-01-26T19:14:05.346Z,73.56
2023-01-26T19:17:11.530Z,74.50
2023-01-26T19:20:22.671Z,74.44
2023-01-26T19:23:30.141Z,73.64
2023-01-26T19:26:37.622Z,73.09
2023-01-26T19:29:44.071Z,72.88
2023-01-26T19:33:04.659Z,72.45
2023-01-26T19:36:13.984Z,72.50
2023-01-26T19:39:20.964Z,72.00
2023-01-26T19:42:27.165Z,72.26
2023-01-26T19:45:34.789Z,71.24
2023-01-26T19:48:42.288Z,71.18
2023-01-26T19:51:53.530Z,71.73
2023-01-26T19:54:59.805Z,71.50
2023-01-26T19:58:06.690Z,71.60
2023-01-26T20:01:15.760Z,71.45
2023-01-26T20:04:22.962Z,71.03
2023-01-26T20:07:32.039Z,70.87
2023-01-26T20:10:39.019Z,70.84
2023-01-26T20:13:46.243Z,71.12
2023-01-26T20:16:53.399Z,70.90
2023-01-26T20:19:59.880Z,71.46
2023-01-26T20:23:09.980Z,71.70
2023-01-26T20:26:16.215Z,71.61
2023-01-26T20:29:24.466Z,71.12
2023-01-26T20:32:31.082Z,70.95
2023-01-26T20:35:38.187Z,70.86
2023-01-26T20:38:48.336Z,71.22
2023-01-26T20:41:57.417Z,71.29
2023-01-26T20:45:04.076Z,70.93
2023-01-26T20:48:11.651Z,70.87
2023-01-26T20:51:21.870Z,70.75
2023-01-26T20:54:31.547Z,70.68
2023-01-26T20:57:38.316Z,70.81
2023-01-26T21:00:48.006Z,70.07
2023-01-26T21:03:55.435Z,70.05
2023-01-26T21:07:02.544Z,69.74
2023-01-26T21:10:13.417Z,70.18
2023-01-26T21:13:20.734Z,70.26
2023-01-26T21:16:28.610Z,70.28
2023-01-26T21:19:35.707Z,70.21
2023-01-26T21:22:41.963Z,70.23
2023-01-26T21:25:51.684Z,70.29
2023-01-26T21:29:01.347Z,70.59
2023-01-26T21:32:09.250Z,70.54
2023-01-26T21:35:16.880Z,70.17
2023-01-26T21:38:23.866Z,71.15
2023-01-26T21:41:47.631Z,71.17
2023-01-26T21:45:07.175Z,70.86
2023-01-26T21:48:25.744Z,70.52
2023-01-26T21:51:45.862Z,70.17
2023-01-26T21:54:52.036Z,70.25
2023-01-26T21:58:14.044Z,70.69
2023-01-26T22:01:20.413Z,71.04
2023-01-26T22:04:31.339Z,71.09
2023-01-26T22:07:37.638Z,71.09
2023-01-26T22:10:44.716Z,70.97
2023-01-26T22:13:53.552Z,70.87
2023-01-26T22:17:00.665Z,71.03
2023-01-26T22:20:07.632Z,70.34
2023-01-26T22:23:16.120Z,70.42
2023-01-26T22:26:25.939Z,70.30
2023-01-26T22:29:35.651Z,70.53
2023-01-26T22:32:41.904Z,70.38
2023-01-26T22:35:48.843Z,71.00
2023-01-26T22:38:55.558Z,71.08
2023-01-26T22:42:02.556Z,70.89
2023-01-26T22:45:14.210Z,70.68
2023-01-26T22:48:22.058Z,71.23
2023-01-26T22:51:31.167Z,71.94
2023-01-26T22:54:38.150Z,72.10
2023-01-26T22:57:44.311Z,72.10
2023-01-26T23:00:53.883Z,72.02
2023-01-26T23:04:01.758Z,71.98
2023-01-26T23:07:08.770Z,71.63
2023-01-26T23:10:15.255Z,71.93
2023-01-26T23:13:22.303Z,71.51
2023-01-26T23:16:31.800Z,71.94
2023-01-26T23:19:38.757Z,71.86
2023-01-26T23:22:44.927Z,71.85
2023-01-26T23:25:55.300Z,71.59
2023-01-26T23:29:01.344Z,71.27
2023-01-26T23:32:12.396Z,71.38
2023-01-26T23:35:18.811Z,71.40
2023-01-26T23:38:28.941Z,71.01
2023-01-26T23:41:35.012Z,71.57
2023-01-26T23:44:41.992Z,71.54
2023-01-26T23:47:52.158Z,71.36
2023-01-26T23:51:00.297Z,71.51
2023-01-26T23:54:06.556Z,71.13
2023-01-26T23:57:13.711Z,71.11
